01:01
Airports
History
Links
Donate
Help keep this website running!
PayPal
Bitcoin
This page is community maintained. The information is intended for PC simulator navigation or reference.
Always use approved charts for navigation.
SIFN
Fazenda Planura
Fazenda Planura (SIFN)
Autazes, Amazonas, Brazil (69240)
4
Lat/Lng:3° 35' 37" S / 59° 39' 8" W
-3.593611 / -59.652222
Elevation:188'ft / 57mMSL
ID / ICAO:SIFN
Runways:1
Longest:07-25
Dirt 789m / 2,587ft
Nearby Weather01:00 GMT 2018-02-18
Nearby weather at SBMN, PONTA PELADA located 38.6 nautical miles from SIFN
Altimeter: 29.85
Visibility: 6.2 statute miles
Wind: 4 knots (from 030°)
Temp: 26°c / 79°f
Humidity: 83.6%

METAR: SBMN 180100Z 03004KT CAVOK 26/23 Q1011

(Powered by phpweather)
Runway 07 / 25
Dimensions:788.6 x 22m 2587' x 72'ft
Surface:Dirt
Runway 07 [A]Runway 25 [B]
Heading:054°TH 234°TH
Lat:
Lng:
3° 35' 44.36"S
59° 39' 18.49"W
3° 35' 29.64"S
59° 38' 57.51"W
User Notes and Comments
3° 35' 37" S / 59° 39' 8" W
Distance To
Airport ID:
Nearby Airports
(C) Karanambo 26.0 NM
SYKR ESE 114°
(C) PONTA PELADA 38.6 NM
SBMN ( WX ) NW 323°
(C) Mountain Point 41.0 NM
SYMP N
(U) Flores 44.1 NM
SWFN NW 324°
(C) Annai 44.3 NM
SYAN SE 124°
(C) Nova Olinda Do Norte 44.5 NM
SWNO ESE 117°
(C) Eduardo Gomes 47.1 NM
SBEG ( WX ) NW 324°
VFR Chart
Flight Planning at SkyVector.com